Time;durP1;ratioP1;P1;durP2;ratioP2;P2;SDS_P1;SDS_P2;PMS_P1;PMS_P2;Temp;Humidity;BMP_temperature;BMP_pressure;BME280_temperature;BME280_humidity;BME280_pressure;Samples;Min_cycle;Max_cycle;Signal;HPM_P1;HPM_P2
2023/03/22 00:01:12;;;;;;;12.67;7.47;;;12.40;21.60;;;;;;5076997;28;20480;-74
2023/03/22 00:03:39;;;;;;;12.67;7.50;;;12.40;21.60;;;;;;5084213;28;20808;-74
2023/03/22 00:06:07;;;;;;;8.77;6.60;;;12.40;21.80;;;;;;5081036;28;20467;-75
2023/03/22 00:08:34;;;;;;;9.10;6.60;;;12.40;21.80;;;;;;5081215;28;20468;-74
2023/03/22 00:11:03;;;;;;;11.97;7.00;;;12.40;21.90;;;;;;5081474;28;20476;-75
2023/03/22 00:13:30;;;;;;;11.27;7.20;;;12.40;22.10;;;;;;5082372;28;20464;-74
2023/03/22 00:15:58;;;;;;;11.80;8.40;;;12.40;22.00;;;;;;5079122;28;20461;-74
2023/03/22 00:18:26;;;;;;;12.73;7.23;;;12.40;22.10;;;;;;5082738;28;20992;-74
2023/03/22 00:20:54;;;;;;;12.37;7.40;;;12.40;22.00;;;;;;5085198;28;21028;-74
2023/03/22 00:23:22;;;;;;;8.30;6.90;;;12.40;22.30;;;;;;5081821;28;20465;-74
2023/03/22 00:25:49;;;;;;;10.77;6.80;;;12.30;22.70;;;;;;5082457;28;20465;-75
2023/03/22 00:28:18;;;;;;;9.80;7.07;;;12.30;22.70;;;;;;5084904;28;20877;-74
2023/03/22 00:30:53;;;;;;;11.60;7.40;;;12.30;22.90;;;;;;5076921;28;20468;-74
2023/03/22 00:33:20;;;;;;;25.83;7.83;;;12.30;22.80;;;;;;5082580;28;20961;-74
2023/03/22 00:35:52;;;;;;;11.40;8.27;;;12.30;22.60;;;;;;5077271;28;20468;-74
2023/03/22 00:38:19;;;;;;;10.57;7.97;;;12.20;23.00;;;;;;5085347;28;20489;-74
2023/03/22 00:40:46;;;;;;;10.17;7.50;;;12.20;23.20;;;;;;5083750;28;20838;-74
2023/03/22 00:43:13;;;;;;;13.97;7.73;;;12.20;23.50;;;;;;5082614;28;20463;-74
2023/03/22 00:45:41;;;;;;;13.63;8.83;;;12.20;23.60;;;;;;5075820;28;20453;-75
2023/03/22 00:48:09;;;;;;;10.17;7.30;;;12.20;23.60;;;;;;5083857;28;20476;-75
2023/03/22 00:50:36;;;;;;;12.93;8.00;;;12.20;23.50;;;;;;5079290;28;20525;-75
2023/03/22 00:53:03;;;;;;;15.10;9.07;;;12.20;23.30;;;;;;5082427;28;20461;-74
2023/03/22 00:55:30;;;;;;;13.53;9.13;;;12.20;23.40;;;;;;5083406;28;20464;-74
2023/03/22 00:57:57;;;;;;;12.23;8.37;;;12.20;23.70;;;;;;5082279;28;20515;-74
2023/03/22 01:00:24;;;;;;;13.20;8.80;;;12.20;23.60;;;;;;5083673;28;20835;-74
2023/03/22 01:02:58;;;;;;;11.70;8.87;;;12.20;23.50;;;;;;5084223;28;20456;-74
2023/03/22 01:05:25;;;;;;;11.50;8.80;;;12.20;23.70;;;;;;5083074;28;20475;-74
2023/03/22 01:07:54;;;;;;;18.57;9.03;;;12.10;23.90;;;;;;5075979;28;21364;-74
2023/03/22 01:10:20;;;;;;;14.30;9.80;;;12.10;23.90;;;;;;5081135;28;20461;-74
2023/03/22 01:12:47;;;;;;;13.47;8.53;;;12.10;24.00;;;;;;5076306;28;20488;-74
2023/03/22 01:15:14;;;;;;;11.67;8.00;;;12.10;23.70;;;;;;5077489;28;20465;-74
2023/03/22 01:17:42;;;;;;;10.40;7.90;;;12.10;23.60;;;;;;5080438;28;20483;-75
2023/03/22 01:20:11;;;;;;;11.17;8.33;;;12.10;23.70;;;;;;5076179;28;20460;-74
2023/03/22 01:22:38;;;;;;;12.03;8.57;;;12.10;23.50;;;;;;5081084;28;20499;-74
2023/03/22 01:25:06;;;;;;;11.40;8.07;;;12.10;23.50;;;;;;5080826;28;20886;-74
2023/03/22 01:27:33;;;;;;;11.70;8.60;;;12.10;23.40;;;;;;5080756;28;21010;-74
2023/03/22 01:29:59;;;;;;;11.63;8.67;;;12.10;23.20;;;;;;5075164;28;20452;-74
2023/03/22 01:32:26;;;;;;;11.70;8.77;;;12.10;23.30;;;;;;5079114;28;20472;-74
2023/03/22 01:34:53;;;;;;;10.10;7.30;;;12.10;23.50;;;;;;5076514;28;20476;-74
2023/03/22 01:37:26;;;;;;;10.10;7.63;;;12.10;23.30;;;;;;5083453;28;20579;-74
2023/03/22 01:39:53;;;;;;;12.03;7.70;;;12.10;23.30;;;;;;5082196;28;20464;-74
2023/03/22 01:42:21;;;;;;;9.70;7.47;;;12.10;23.20;;;;;;5078381;28;20453;-74
2023/03/22 01:45:23;;;;;;;14.60;8.70;;;12.10;23.20;;;;;;5079414;28;20548;-74
2023/03/22 01:47:55;;;;;;;11.27;7.90;;;12.00;23.30;;;;;;5073510;28;20483;-74
2023/03/22 01:50:23;;;;;;;12.37;8.87;;;12.00;23.10;;;;;;5079899;28;20487;-73
2023/03/22 01:52:53;;;;;;;11.40;8.07;;;12.00;23.00;;;;;;5077056;28;21007;-74
2023/03/22 01:55:21;;;;;;;23.57;15.20;;;12.00;22.90;;;;;;5084739;28;20460;-73
2023/03/22 01:57:48;;;;;;;13.70;10.70;;;12.00;22.90;;;;;;5076708;28;20487;-74
2023/03/22 02:00:17;;;;;;;11.57;8.00;;;12.00;22.80;;;;;;5074270;28;20473;-74
2023/03/22 02:02:48;;;;;;;13.87;9.40;;;12.00;22.80;;;;;;5078318;28;20494;-73
2023/03/22 02:05:17;;;;;;;17.63;9.97;;;12.00;22.90;;;;;;5084660;28;20452;-74
2023/03/22 02:07:44;;;;;;;10.80;8.60;;;12.00;22.90;;;;;;5076463;28;20492;-74
2023/03/22 02:10:15;;;;;;;12.77;8.90;;;12.00;22.90;;;;;;5078287;28;20453;-74
2023/03/22 02:12:55;;;;;;;11.33;7.50;;;11.90;22.80;;;;;;5081476;28;20476;-74
2023/03/22 02:15:24;;;;;;;11.53;8.63;;;11.90;22.90;;;;;;5072612;28;20452;-74
2023/03/22 02:18:05;;;;;;;11.07;7.77;;;11.90;23.10;;;;;;5077949;28;20487;-74
2023/03/22 02:21:11;;;;;;;11.10;8.37;;;11.90;23.10;;;;;;5078194;28;20456;-74
2023/03/22 02:24:17;;;;;;;12.20;8.80;;;11.80;23.30;;;;;;5075598;28;20861;-74
2023/03/22 02:26:58;;;;;;;12.60;8.77;;;11.70;23.50;;;;;;5038468;28;20483;-74
2023/03/22 02:29:34;;;;;;;12.13;8.60;;;11.70;23.70;;;;;;5078445;28;20543;-74
2023/03/22 02:32:29;;;;;;;11.90;8.67;;;11.60;23.80;;;;;;5081922;28;20476;-75
2023/03/22 02:35:25;;;;;;;11.27;8.50;;;11.50;24.00;;;;;;5079492;28;20484;-75
2023/03/22 02:38:18;;;;;;;13.83;8.57;;;11.50;24.20;;;;;;5076153;28;20491;-74
2023/03/22 02:40:52;;;;;;;10.53;8.10;;;11.40;24.20;;;;;;5079297;28;20466;-74
2023/03/22 02:43:29;;;;;;;11.60;9.20;;;11.40;24.30;;;;;;5074864;28;21138;-75
2023/03/22 02:46:04;;;;;;;10.90;7.70;;;11.30;24.40;;;;;;5081855;28;20463;-75
2023/03/22 02:48:35;;;;;;;12.00;9.03;;;11.30;24.40;;;;;;5082570;28;20822;-75
2023/03/22 02:51:08;;;;;;;12.13;8.83;;;11.20;24.50;;;;;;5081289;28;20456;-74
2023/03/22 02:53:39;;;;;;;13.30;8.93;;;11.20;25.50;;;;;;5075935;28;20460;-74
2023/03/22 02:56:12;;;;;;;11.97;9.30;;;11.10;24.70;;;;;;5076136;28;20488;-74
2023/03/22 02:58:44;;;;;;;14.90;10.90;;;11.10;25.10;;;;;;5084702;28;20456;-75
2023/03/22 03:01:16;;;;;;;14.70;9.33;;;11.00;25.30;;;;;;5082762;28;20474;-74
2023/03/22 03:03:47;;;;;;;12.10;8.90;;;11.00;25.50;;;;;;5079175;28;20469;-74
2023/03/22 03:06:18;;;;;;;15.67;9.10;;;10.90;25.50;;;;;;5086279;28;20451;-74
2023/03/22 03:08:49;;;;;;;14.33;10.00;;;10.90;25.70;;;;;;5083735;28;20478;-75
2023/03/22 03:11:18;;;;;;;11.50;8.97;;;10.80;25.60;;;;;;5085465;28;20509;-75
2023/03/22 03:13:47;;;;;;;11.13;7.33;;;10.80;25.70;;;;;;5085480;28;20456;-75
2023/03/22 03:16:18;;;;;;;14.43;9.70;;;10.70;26.00;;;;;;5082495;28;20549;-75
2023/03/22 03:18:53;;;;;;;13.47;9.60;;;10.70;26.00;;;;;;5085648;28;20460;-74
2023/03/22 03:21:31;;;;;;;11.07;8.33;;;10.70;26.20;;;;;;5080682;28;20907;-74
2023/03/22 03:24:10;;;;;;;13.13;9.33;;;10.60;26.10;;;;;;5080362;28;20584;-74
2023/03/22 03:26:46;;;;;;;13.13;9.57;;;10.60;26.20;;;;;;5080296;28;20536;-74
2023/03/22 03:29:20;;;;;;;11.57;8.63;;;10.60;26.40;;;;;;5082043;28;20987;-75
2023/03/22 03:31:52;;;;;;;13.60;9.20;;;10.50;26.40;;;;;;5080844;28;20483;-74
2023/03/22 03:34:22;;;;;;;10.93;8.37;;;10.50;26.50;;;;;;5080972;28;20460;-74
2023/03/22 03:36:53;;;;;;;14.23;10.10;;;10.50;26.70;;;;;;5076822;28;20665;-74
2023/03/22 03:39:21;;;;;;;13.00;9.97;;;10.40;27.00;;;;;;5085238;28;20456;-75
2023/03/22 03:41:51;;;;;;;14.17;9.27;;;10.40;26.80;;;;;;5081761;28;20448;-75
2023/03/22 03:44:18;;;;;;;12.20;9.53;;;10.40;27.10;;;;;;5082493;28;20460;-75
2023/03/22 03:46:46;;;;;;;13.57;9.83;;;10.40;27.20;;;;;;5079731;28;20507;-75
2023/03/22 03:49:16;;;;;;;13.00;8.97;;;10.30;27.40;;;;;;5079629;28;20457;-75
2023/03/22 03:51:48;;;;;;;13.27;9.60;;;10.30;27.50;;;;;;5085092;28;20476;-74
2023/03/22 03:54:14;;;;;;;14.13;9.47;;;10.30;27.50;;;;;;5081766;28;20466;-74
2023/03/22 03:56:41;;;;;;;18.37;11.00;;;10.20;27.50;;;;;;5085535;28;20484;-74
2023/03/22 03:59:09;;;;;;;17.63;10.20;;;10.20;27.60;;;;;;5084654;28;20983;-74
2023/03/22 04:01:36;;;;;;;13.93;9.90;;;10.20;27.70;;;;;;5080955;28;20488;-75
2023/03/22 04:04:03;;;;;;;15.73;10.93;;;10.20;27.80;;;;;;5084470;28;20471;-75
2023/03/22 04:06:33;;;;;;;10.90;9.27;;;10.10;27.90;;;;;;5085051;28;20590;-75
2023/03/22 04:09:00;;;;;;;14.07;9.43;;;10.00;27.90;;;;;;5082221;28;20465;-74
2023/03/22 04:11:27;;;;;;;14.10;9.47;;;10.00;28.10;;;;;;5083001;28;20547;-74
2023/03/22 04:13:54;;;;;;;14.33;10.40;;;9.90;28.20;;;;;;5077464;28;21531;-74
2023/03/22 04:16:23;;;;;;;13.47;9.67;;;9.90;28.20;;;;;;5083518;28;20858;-75
2023/03/22 04:18:50;;;;;;;12.10;8.57;;;9.90;28.40;;;;;;5084157;28;20457;-75
2023/03/22 04:21:18;;;;;;;12.77;9.77;;;9.90;28.20;;;;;;5080787;28;20476;-75
2023/03/22 04:23:45;;;;;;;12.40;10.07;;;9.80;28.40;;;;;;5083584;28;21014;-75
2023/03/22 04:26:12;;;;;;;18.00;10.30;;;9.80;28.50;;;;;;5084184;28;20554;-75
2023/03/22 04:28:39;;;;;;;14.03;9.90;;;9.80;28.70;;;;;;5077715;28;20472;-75
2023/03/22 04:31:07;;;;;;;15.80;12.43;;;9.80;28.90;;;;;;5077247;28;20481;-75
2023/03/22 04:33:38;;;;;;;14.20;10.83;;;9.90;29.10;;;;;;5081784;28;20482;-75
2023/03/22 04:36:05;;;;;;;14.10;11.23;;;9.90;29.60;;;;;;5081489;28;21128;-75
2023/03/22 04:38:32;;;;;;;13.60;10.47;;;9.80;29.40;;;;;;5085252;28;20471;-75
2023/03/22 04:40:59;;;;;;;13.97;10.70;;;9.80;29.60;;;;;;5070626;28;20842;-74
2023/03/22 04:43:26;;;;;;;20.63;11.50;;;9.70;29.70;;;;;;5076921;28;20455;-75
2023/03/22 04:45:57;;;;;;;13.33;9.87;;;9.60;29.80;;;;;;5078908;28;20461;-75
2023/03/22 04:48:26;;;;;;;15.17;11.17;;;9.60;29.50;;;;;;5076953;28;21060;-75
2023/03/22 04:50:54;;;;;;;14.83;11.93;;;9.60;29.10;;;;;;5080129;28;20862;-75
2023/03/22 04:53:26;;;;;;;16.40;11.20;;;9.50;29.10;;;;;;5083541;28;20610;-75
2023/03/22 04:55:55;;;;;;;14.10;10.60;;;9.50;29.20;;;;;;5088626;28;20474;-75
2023/03/22 04:58:22;;;;;;;13.90;10.77;;;9.40;29.90;;;;;;5074817;28;20480;-76
2023/03/22 05:00:51;;;;;;;14.67;10.93;;;9.40;30.00;;;;;;5075709;28;20472;-74
2023/03/22 05:03:20;;;;;;;15.00;12.10;;;9.30;30.00;;;;;;5078041;28;20489;-76
2023/03/22 05:05:51;;;;;;;14.97;11.20;;;9.30;30.10;;;;;;5078990;28;20567;-74
2023/03/22 05:08:20;;;;;;;18.97;13.10;;;9.20;30.50;;;;;;5078609;28;20493;-73
2023/03/22 05:10:46;;;;;;;17.53;12.20;;;9.20;30.90;;;;;;5081541;28;20544;-73
2023/03/22 05:13:13;;;;;;;13.70;11.37;;;9.20;31.00;;;;;;5075606;28;20533;-73
2023/03/22 05:15:41;;;;;;;15.03;11.53;;;9.10;31.00;;;;;;5076172;28;20475;-72
2023/03/22 05:18:08;;;;;;;17.27;12.43;;;9.20;31.10;;;;;;5079424;28;20480;-72
2023/03/22 05:20:35;;;;;;;17.17;12.33;;;9.10;31.30;;;;;;5081790;28;20461;-72
2023/03/22 05:23:03;;;;;;;14.97;11.37;;;9.20;31.20;;;;;;5081972;28;20499;-72
2023/03/22 05:25:31;;;;;;;18.20;11.07;;;9.20;31.20;;;;;;5076397;28;20488;-72
2023/03/22 05:28:00;;;;;;;16.33;10.43;;;9.20;31.20;;;;;;5081508;28;20483;-73
2023/03/22 05:30:27;;;;;;;16.70;12.17;;;9.20;31.40;;;;;;5078414;28;20468;-70
2023/03/22 05:32:58;;;;;;;19.93;13.07;;;9.30;31.50;;;;;;5073115;28;20480;-70
2023/03/22 05:35:25;;;;;;;18.53;11.50;;;9.40;31.40;;;;;;5075576;28;21197;-71
2023/03/22 05:37:52;;;;;;;16.07;12.53;;;9.40;31.20;;;;;;5080828;28;20517;-70
2023/03/22 05:40:19;;;;;;;14.57;11.00;;;9.50;31.00;;;;;;5081276;28;20702;-73
2023/03/22 05:42:47;;;;;;;16.47;12.73;;;9.60;30.70;;;;;;5074697;28;20580;-70
2023/03/22 05:45:15;;;;;;;15.23;11.80;;;9.60;30.80;;;;;;5077233;28;20467;-72
2023/03/22 05:47:42;;;;;;;15.50;11.80;;;9.70;31.10;;;;;;5069457;28;20479;-67
2023/03/22 05:50:10;;;;;;;16.27;11.03;;;9.80;30.80;;;;;;5069424;28;20561;-73
2023/03/22 05:52:37;;;;;;;15.77;12.07;;;10.00;30.00;;;;;;5074402;28;22115;-72
2023/03/22 05:55:05;;;;;;;18.80;11.10;;;10.30;29.20;;;;;;5077875;28;20459;-73
2023/03/22 05:57:32;;;;;;;15.50;10.43;;;10.80;27.90;;;;;;5078129;28;20480;-74
2023/03/22 06:00:00;;;;;;;14.77;10.97;;;11.40;25.80;;;;;;5073939;28;20708;-73
2023/03/22 06:02:27;;;;;;;12.57;9.80;;;12.00;24.10;;;;;;5078959;28;20468;-72
2023/03/22 06:04:54;;;;;;;17.40;12.33;;;12.70;22.40;;;;;;5080552;28;20456;-75
2023/03/22 06:07:21;;;;;;;15.00;11.23;;;13.30;20.50;;;;;;5075710;28;20484;-76
2023/03/22 06:09:48;;;;;;;14.10;10.10;;;13.90;19.30;;;;;;5073439;28;20460;-76
2023/03/22 06:12:17;;;;;;;15.03;10.33;;;14.40;18.20;;;;;;5072608;28;20496;-74
2023/03/22 06:14:44;;;;;;;12.50;9.40;;;14.80;17.30;;;;;;5079603;28;20452;-76
2023/03/22 06:17:12;;;;;;;12.83;8.80;;;15.00;16.20;;;;;;5078087;28;20478;-76
2023/03/22 06:19:39;;;;;;;13.60;9.37;;;15.20;15.80;;;;;;5077971;28;20480;-76
2023/03/22 06:22:05;;;;;;;11.93;9.20;;;15.40;15.40;;;;;;5075353;28;20460;-76
2023/03/22 06:24:32;;;;;;;13.77;9.10;;;15.60;15.20;;;;;;5078186;28;20960;-76
2023/03/22 06:26:59;;;;;;;10.07;8.37;;;15.70;15.00;;;;;;5076957;28;20537;-68
2023/03/22 06:29:26;;;;;;;11.87;8.33;;;15.90;14.50;;;;;;5077536;28;20471;-69
2023/03/22 06:31:53;;;;;;;10.80;8.10;;;15.90;14.20;;;;;;5079259;28;20494;-68
2023/03/22 06:34:21;;;;;;;10.67;8.40;;;16.00;13.40;;;;;;5076844;28;20479;-69
2023/03/22 06:36:48;;;;;;;10.63;8.27;;;16.10;13.20;;;;;;5084745;28;20482;-69
2023/03/22 06:39:15;;;;;;;11.40;8.57;;;16.20;13.10;;;;;;5084179;28;20456;-69
2023/03/22 06:41:41;;;;;;;11.00;8.63;;;16.50;12.30;;;;;;5081122;28;20483;-69
2023/03/22 06:44:08;;;;;;;14.30;9.27;;;16.90;11.50;;;;;;5083318;28;20944;-65
2023/03/22 06:46:35;;;;;;;12.57;9.53;;;17.40;10.60;;;;;;5078298;28;20487;-66
2023/03/22 06:49:01;;;;;;;13.33;9.00;;;17.60;10.10;;;;;;5087359;28;20556;-69
2023/03/22 06:51:29;;;;;;;10.53;9.20;;;17.80;9.70;;;;;;5080914;28;20479;-67
2023/03/22 06:53:56;;;;;;;10.17;7.80;;;18.10;9.40;;;;;;5080887;28;20473;-66
2023/03/22 06:56:23;;;;;;;11.00;9.13;;;18.40;8.80;;;;;;5084730;28;21266;-65
2023/03/22 06:58:50;;;;;;;11.23;8.80;;;19.00;7.60;;;;;;5084093;28;20464;-74
2023/03/22 07:01:17;;;;;;;12.63;8.47;;;19.90;6.20;;;;;;5068989;28;21025;-76
2023/03/22 07:03:44;;;;;;;10.30;7.37;;;20.90;4.40;;;;;;5084811;28;20456;-76
2023/03/22 07:06:11;;;;;;;13.30;8.00;;;22.00;3.10;;;;;;5083434;28;20489;-74
2023/03/22 07:08:39;;;;;;;9.77;8.20;;;23.00;1.10;;;;;;5082562;28;20448;-75
2023/03/22 07:11:07;;;;;;;9.80;7.57;;;24.20;1.00;;;;;;5085015;28;20452;-74
2023/03/22 07:13:34;;;;;;;9.13;7.67;;;25.20;1.00;;;;;;5078814;28;20515;-74
2023/03/22 07:16:02;;;;;;;10.00;7.33;;;26.20;1.00;;;;;;5082503;28;20467;-74
2023/03/22 07:18:29;;;;;;;10.30;9.20;;;27.10;1.00;;;;;;5083658;28;20456;-75
2023/03/22 07:20:56;;;;;;;9.20;7.47;;;27.80;1.00;;;;;;5082548;28;20463;-75
2023/03/22 07:23:23;;;;;;;11.67;9.30;;;28.50;1.00;;;;;;5076528;28;20456;-75
2023/03/22 07:25:52;;;;;;;10.27;7.50;;;29.30;1.00;;;;;;5077463;28;20452;-76
2023/03/22 07:28:19;;;;;;;9.43;7.33;;;30.20;1.00;;;;;;5085317;28;21016;-77
2023/03/22 07:30:45;;;;;;;10.60;7.10;;;30.90;1.00;;;;;;5082793;28;20562;-76
2023/03/22 07:33:12;;;;;;;8.70;7.30;;;31.60;1.00;;;;;;5083037;28;20476;-76
2023/03/22 07:35:39;;;;;;;7.60;6.10;;;32.30;1.00;;;;;;5075296;28;20461;-76
2023/03/22 07:38:06;;;;;;;8.87;6.80;;;33.00;1.00;;;;;;5079280;28;20491;-76
2023/03/22 07:40:33;;;;;;;8.00;7.20;;;33.30;1.00;;;;;;5077770;28;20457;-72
2023/03/22 07:43:01;;;;;;;7.93;6.20;;;33.20;1.00;;;;;;5075486;28;20845;-73
2023/03/22 07:45:28;;;;;;;9.23;6.37;;;33.60;1.00;;;;;;5080775;28;20464;-74
2023/03/22 07:47:55;;;;;;;10.37;6.40;;;34.20;1.00;;;;;;5079019;28;20875;-77
2023/03/22 07:50:21;;;;;;;7.57;6.03;;;34.80;1.00;;;;;;5081125;28;20467;-73
2023/03/22 07:52:48;;;;;;;8.10;5.50;;;35.20;1.00;;;;;;5081624;28;20456;-71
2023/03/22 07:55:15;;;;;;;12.93;6.23;;;35.50;1.00;;;;;;5087935;28;20452;-72
2023/03/22 07:57:42;;;;;;;6.10;4.97;;;35.80;1.00;;;;;;5082062;28;20490;-76
2023/03/22 08:00:11;;;;;;;7.53;4.83;;;36.10;1.00;;;;;;5083509;28;21249;-72
2023/03/22 08:02:38;;;;;;;8.37;5.40;;;36.60;1.00;;;;;;5079710;28;20475;-71
2023/03/22 08:05:07;;;;;;;7.60;5.33;;;36.90;1.00;;;;;;5082282;28;20800;-72
2023/03/22 08:07:33;;;;;;;6.97;4.60;;;37.20;1.00;;;;;;5081357;28;20480;-72
2023/03/22 08:10:00;;;;;;;6.20;4.57;;;37.50;1.00;;;;;;5076994;28;20456;-72
2023/03/22 08:12:27;;;;;;;7.40;4.90;;;38.00;1.00;;;;;;5078827;28;20659;-71
2023/03/22 08:14:54;;;;;;;12.50;5.27;;;38.40;1.00;;;;;;5076231;28;20563;-72
2023/03/22 08:17:24;;;;;;;6.23;4.00;;;38.70;1.00;;;;;;5073101;28;20480;-70
2023/03/22 08:19:50;;;;;;;5.33;4.10;;;39.10;1.00;;;;;;5076063;28;20472;-76
2023/03/22 08:22:17;;;;;;;17.00;5.03;;;39.40;1.00;;;;;;5071970;28;20453;-68
2023/03/22 08:24:44;;;;;;;6.73;5.03;;;39.80;1.00;;;;;;5084001;28;20455;-72
2023/03/22 08:27:11;;;;;;;8.03;4.23;;;40.00;1.00;;;;;;5080382;28;20564;-67
2023/03/22 08:29:37;;;;;;;6.10;4.10;;;40.10;1.00;;;;;;5080272;28;20464;-72
2023/03/22 08:32:05;;;;;;;6.93;4.40;;;40.40;1.00;;;;;;5080862;28;20468;-73
2023/03/22 08:34:37;;;;;;;8.43;4.60;;;40.80;1.00;;;;;;5073986;28;20883;-72
2023/03/22 08:37:04;;;;;;;9.27;4.10;;;41.30;1.00;;;;;;5079265;28;20480;-76
2023/03/22 08:39:31;;;;;;;6.17;4.40;;;41.60;1.00;;;;;;5084108;28;20455;-79
2023/03/22 08:41:57;;;;;;;6.90;4.13;;;41.90;1.00;;;;;;5078761;28;21050;-74
2023/03/22 08:44:24;;;;;;;9.60;4.70;;;42.10;1.00;;;;;;5078181;28;20459;-75
2023/03/22 08:46:52;;;;;;;6.30;4.00;;;42.30;1.00;;;;;;5079257;28;20594;-73
2023/03/22 08:49:18;;;;;;;6.87;4.40;;;42.50;1.00;;;;;;5080631;28;20505;-76
2023/03/22 08:51:47;;;;;;;6.63;3.90;;;42.60;1.00;;;;;;5078367;28;20464;-73
2023/03/22 08:54:13;;;;;;;5.00;3.80;;;42.90;1.00;;;;;;5080190;28;20491;-73
2023/03/22 08:56:40;;;;;;;5.43;3.80;;;43.00;1.00;;;;;;5076985;28;21230;-73
2023/03/22 08:59:09;;;;;;;6.00;4.00;;;43.00;1.00;;;;;;5078196;28;20517;-72
2023/03/22 09:01:36;;;;;;;5.70;3.93;;;43.00;1.00;;;;;;5079878;28;20503;-72
2023/03/22 09:04:04;;;;;;;9.03;3.50;;;42.00;1.00;;;;;;5075216;28;20971;-72
2023/03/22 09:06:31;;;;;;;5.10;3.30;;;41.50;1.00;;;;;;5078870;28;20476;-74
2023/03/22 09:08:59;;;;;;;5.83;3.47;;;41.60;1.00;;;;;;5080613;28;20464;-72
2023/03/22 09:11:26;;;;;;;5.87;2.90;;;41.80;1.00;;;;;;5075437;28;20844;-73
2023/03/22 09:13:53;;;;;;;5.90;3.47;;;42.10;1.00;;;;;;5075844;28;20487;-74
2023/03/22 09:16:19;;;;;;;5.60;2.97;;;42.30;1.00;;;;;;5077486;28;21184;-74
2023/03/22 09:18:46;;;;;;;5.40;2.90;;;42.50;1.00;;;;;;5077963;28;20583;-72
2023/03/22 09:21:13;;;;;;;5.73;2.70;;;42.80;1.00;;;;;;5079653;28;20952;-72
2023/03/22 09:23:41;;;;;;;6.80;2.60;;;43.00;1.00;;;;;;5077921;28;20465;-73
2023/03/22 09:26:09;;;;;;;4.60;2.50;;;43.00;1.00;;;;;;5073238;28;20591;-72
2023/03/22 09:28:37;;;;;;;4.63;2.40;;;43.00;1.00;;;;;;5076446;28;20466;-74
2023/03/22 09:31:06;;;;;;;6.27;2.67;;;42.90;1.00;;;;;;5073601;28;20507;-74
2023/03/22 09:33:33;;;;;;;5.17;2.50;;;42.80;1.00;;;;;;5082766;28;20676;-73
2023/03/22 09:36:00;;;;;;;4.87;2.57;;;42.80;1.00;;;;;;5080155;28;20448;-74
2023/03/22 09:38:27;;;;;;;4.97;2.63;;;42.90;1.00;;;;;;5077826;28;20488;-74
2023/03/22 09:40:59;;;;;;;4.97;2.30;;;42.90;1.00;;;;;;5073671;28;20464;-76
2023/03/22 09:43:29;;;;;;;5.13;2.80;;;42.90;1.00;;;;;;5079136;28;21011;-74
2023/03/22 09:45:55;;;;;;;5.50;2.97;;;43.00;1.00;;;;;;5076106;28;20460;-77
2023/03/22 09:48:30;;;;;;;5.93;2.70;;;43.40;1.00;;;;;;5073758;28;20484;-75
2023/03/22 09:50:59;;;;;;;6.40;3.17;;;43.40;1.00;;;;;;5071074;28;20458;-74
2023/03/22 09:53:28;;;;;;;8.00;2.53;;;43.20;1.00;;;;;;5076507;28;20451;-74
2023/03/22 09:56:21;;;;;;;5.00;2.50;;;43.10;1.00;;;;;;5076657;28;20456;-77
2023/03/22 09:58:54;;;;;;;8.37;3.20;;;43.00;1.00;;;;;;5091077;28;20474;-71
2023/03/22 10:01:39;;;;;;;5.27;2.80;;;43.10;1.00;;;;;;5095489;28;20475;-75
2023/03/22 10:04:25;;;;;;;5.33;2.90;;;43.40;1.00;;;;;;5086032;28;20462;-74
2023/03/22 10:07:02;;;;;;;6.90;2.37;;;43.50;1.00;;;;;;5093887;27;20552;-71
2023/03/22 10:09:35;;;;;;;4.20;2.30;;;43.70;1.00;;;;;;5096666;28;20458;-71
2023/03/22 10:12:10;;;;;;;4.77;2.40;;;43.80;1.00;;;;;;5090286;28;20469;-71
2023/03/22 10:14:41;;;;;;;5.23;2.50;;;43.80;1.00;;;;;;5099192;28;21073;-71
2023/03/22 10:17:12;;;;;;;4.00;2.10;;;43.90;1.00;;;;;;5103872;28;20676;-71
2023/03/22 10:19:48;;;;;;;5.43;2.83;;;43.90;1.00;;;;;;5090555;28;20958;-71
2023/03/22 10:22:18;;;;;;;8.30;2.90;;;44.00;1.00;;;;;;5100200;28;20517;-71
2023/03/22 10:24:49;;;;;;;5.47;2.20;;;43.90;1.00;;;;;;5093143;28;20463;-71
2023/03/22 10:27:17;;;;;;;4.80;2.30;;;43.60;1.00;;;;;;5091703;28;20470;-71
2023/03/22 10:29:50;;;;;;;4.90;2.07;;;43.60;1.00;;;;;;5087722;28;20467;-71
2023/03/22 10:32:19;;;;;;;6.53;2.07;;;43.30;1.00;;;;;;5094422;27;20480;-71
2023/03/22 10:34:46;;;;;;;5.40;2.13;;;43.30;1.00;;;;;;5090574;28;20483;-71
2023/03/22 10:37:16;;;;;;;4.33;1.90;;;43.20;1.00;;;;;;5091172;28;20471;-71
2023/03/22 10:39:46;;;;;;;5.60;2.40;;;42.80;1.00;;;;;;5100227;28;20460;-71
2023/03/22 10:42:15;;;;;;;4.67;2.17;;;42.40;1.00;;;;;;5095054;28;20516;-71
2023/03/22 10:44:49;;;;;;;3.77;1.73;;;42.00;1.00;;;;;;5099820;28;20500;-71
2023/03/22 10:47:19;;;;;;;7.23;2.40;;;41.70;1.00;;;;;;5099519;28;20807;-71
2023/03/22 10:49:51;;;;;;;4.93;1.90;;;41.20;1.00;;;;;;5105349;28;20539;-71
2023/03/22 10:52:38;;;;;;;5.10;2.33;;;40.90;1.00;;;;;;5102250;28;20561;-71
2023/03/22 10:55:09;;;;;;;5.40;1.83;;;40.50;1.00;;;;;;5095202;28;20474;-71
2023/03/22 10:57:38;;;;;;;4.30;2.10;;;40.20;1.00;;;;;;5102116;28;20828;-71
2023/03/22 11:00:10;;;;;;;7.10;1.80;;;39.40;1.00;;;;;;5092013;28;20494;-71
2023/03/22 11:02:46;;;;;;;4.13;2.13;;;39.10;1.00;;;;;;5104319;28;20472;-71
2023/03/22 11:05:21;;;;;;;8.33;2.20;;;38.60;1.00;;;;;;5095105;28;20478;-71
2023/03/22 11:07:49;;;;;;;5.80;1.80;;;38.20;1.00;;;;;;5099893;28;20481;-71
2023/03/22 11:10:22;;;;;;;5.80;1.93;;;37.90;1.00;;;;;;5094673;28;20468;-71
2023/03/22 11:12:52;;;;;;;4.73;2.33;;;37.50;1.00;;;;;;5096298;28;20470;-71
2023/03/22 11:15:25;;;;;;;5.40;2.30;;;37.10;1.00;;;;;;5103586;28;20581;-71
2023/03/22 11:17:53;;;;;;;4.40;2.10;;;36.30;1.00;;;;;;5105407;28;20459;-71
2023/03/22 11:20:21;;;;;;;6.33;2.50;;;35.80;1.00;;;;;;5104887;28;20462;-70
2023/03/22 11:22:50;;;;;;;4.60;2.10;;;35.30;1.00;;;;;;5102522;28;20466;-71
2023/03/22 11:25:21;;;;;;;4.20;2.00;;;34.60;1.00;;;;;;5100982;28;20550;-72
2023/03/22 11:27:52;;;;;;;5.20;2.53;;;34.20;1.00;;;;;;5103166;28;20466;-71
2023/03/22 11:30:24;;;;;;;5.50;2.00;;;33.40;1.00;;;;;;5108522;27;20990;-71
2023/03/22 11:33:00;;;;;;;4.47;2.20;;;32.80;1.00;;;;;;5099110;27;20454;-71
2023/03/22 11:35:30;;;;;;;4.70;2.07;;;32.40;1.00;;;;;;5101079;27;20475;-71
2023/03/22 11:38:01;;;;;;;6.00;2.50;;;31.80;1.00;;;;;;5088877;28;20737;-71
2023/03/22 11:40:30;;;;;;;4.57;1.80;;;31.10;1.00;;;;;;5098677;28;20838;-71
2023/03/22 11:43:10;;;;;;;4.40;2.10;;;30.50;1.00;;;;;;5098910;28;20451;-71
2023/03/22 11:45:43;;;;;;;4.60;2.30;;;30.00;1.00;;;;;;5109309;27;20478;-72
2023/03/22 11:48:21;;;;;;;5.17;2.30;;;29.30;1.00;;;;;;5108598;28;20952;-71
2023/03/22 11:50:48;;;;;;;6.10;2.50;;;28.50;1.00;;;;;;5107575;28;20439;-71
2023/03/22 11:53:17;;;;;;;5.30;2.60;;;28.00;1.00;;;;;;5101932;28;20803;-71
2023/03/22 11:55:45;;;;;;;5.13;2.67;;;27.40;1.00;;;;;;5099769;28;20490;-70
2023/03/22 11:58:27;;;;;;;5.70;2.70;;;26.90;1.00;;;;;;5097073;28;20475;-71
2023/03/22 12:00:59;;;;;;;4.47;1.90;;;26.40;1.00;;;;;;5095766;28;20463;-71
2023/03/22 12:03:29;;;;;;;5.40;2.30;;;26.10;1.00;;;;;;5098314;28;20789;-71
2023/03/22 12:05:56;;;;;;;8.43;2.03;;;25.60;1.00;;;;;;5098203;28;20862;-71
2023/03/22 12:08:28;;;;;;;5.90;2.17;;;25.20;1.00;;;;;;5095636;28;20466;-70
2023/03/22 12:11:01;;;;;;;5.10;2.17;;;24.90;1.00;;;;;;5098481;28;20846;-71
2023/03/22 12:13:44;;;;;;;5.17;2.37;;;24.60;1.00;;;;;;5093638;28;20464;-70
2023/03/22 12:16:17;;;;;;;4.87;1.90;;;24.20;1.00;;;;;;5092850;28;20505;-71
2023/03/22 12:18:50;;;;;;;4.67;2.13;;;23.90;1.00;;;;;;5095185;28;20578;-71
2023/03/22 12:21:17;;;;;;;5.63;1.90;;;23.60;1.00;;;;;;5091348;28;20463;-71
2023/03/22 12:23:44;;;;;;;4.57;2.10;;;23.30;1.00;;;;;;5098296;28;20489;-71
2023/03/22 12:26:16;;;;;;;4.43;1.90;;;23.20;1.00;;;;;;5091766;28;20569;-70
2023/03/22 12:28:51;;;;;;;5.20;2.43;;;23.10;1.00;;;;;;5098237;27;20452;-70
2023/03/22 12:31:23;;;;;;;5.40;2.00;;;23.00;1.00;;;;;;5095520;28;20571;-70
2023/03/22 12:33:53;;;;;;;5.00;1.93;;;22.70;1.00;;;;;;5096984;28;20471;-70
2023/03/22 12:36:26;;;;;;;4.47;1.93;;;22.50;1.00;;;;;;5098806;28;20491;-70
2023/03/22 12:38:55;;;;;;;5.00;1.90;;;22.40;1.00;;;;;;5099873;28;20536;-70
2023/03/22 12:41:26;;;;;;;4.77;2.00;;;22.30;1.00;;;;;;5104764;28;20867;-71
2023/03/22 12:43:55;;;;;;;6.57;2.57;;;22.10;1.00;;;;;;5102933;28;20459;-71
2023/03/22 12:46:27;;;;;;;5.23;2.53;;;22.00;1.00;;;;;;5100273;28;20995;-71
2023/03/22 12:49:00;;;;;;;6.70;2.17;;;21.90;1.00;;;;;;5104711;28;20452;-70
2023/03/22 12:51:27;;;;;;;4.53;1.57;;;21.70;1.00;;;;;;5104359;28;20471;-71
2023/03/22 12:53:57;;;;;;;4.83;1.80;;;21.50;1.00;;;;;;5105874;28;20551;-71
2023/03/22 12:56:28;;;;;;;4.60;2.00;;;21.40;1.00;;;;;;5103019;28;20479;-71
2023/03/22 12:58:58;;;;;;;5.90;2.43;;;21.40;1.00;;;;;;5099485;28;20452;-70